createdAt,value
2023-05-20T00:01:45.446Z,102343.72
2023-05-20T00:04:12.817Z,102339.97
2023-05-20T00:06:40.139Z,102349.41
2023-05-20T00:09:08.767Z,102345.19
2023-05-20T00:11:36.030Z,102346.00
2023-05-20T00:14:03.330Z,102345.44
2023-05-20T00:16:30.686Z,102340.00
2023-05-20T00:18:58.087Z,102342.28
2023-05-20T00:21:25.356Z,102337.47
2023-05-20T00:23:52.696Z,102336.47
2023-05-20T00:26:21.297Z,102338.75
2023-05-20T00:28:48.520Z,102338.97
2023-05-20T00:31:15.918Z,102329.91
2023-05-20T00:33:43.199Z,102344.53
2023-05-20T00:36:10.515Z,102341.31
2023-05-20T00:38:37.844Z,102348.00
2023-05-20T00:41:05.186Z,102344.25
2023-05-20T00:43:33.803Z,102345.13
2023-05-20T00:46:01.698Z,102341.38
2023-05-20T00:48:36.953Z,102342.19
2023-05-20T00:51:04.303Z,102337.88
2023-05-20T00:53:34.405Z,102336.84
2023-05-20T00:56:01.791Z,102335.84
2023-05-20T00:58:29.049Z,102342.41
2023-05-20T01:00:57.887Z,102340.94
2023-05-20T01:03:25.756Z,102336.00
2023-05-20T01:05:53.236Z,102329.16
2023-05-20T01:08:20.517Z,102331.09
2023-05-20T01:10:51.464Z,102329.41
2023-05-20T01:13:21.922Z,102327.38
2023-05-20T01:15:50.616Z,102328.72
2023-05-20T01:18:20.256Z,102328.81
2023-05-20T01:20:49.950Z,102328.56
2023-05-20T01:23:18.584Z,102325.66
2023-05-20T01:25:45.869Z,102319.78
2023-05-20T01:28:13.252Z,102315.81
2023-05-20T01:30:56.055Z,102317.59
2023-05-20T01:33:25.340Z,102313.88
2023-05-20T01:35:53.082Z,102313.16
2023-05-20T01:38:23.601Z,102310.22
2023-05-20T01:40:52.157Z,102312.44
2023-05-20T01:43:20.585Z,102304.09
2023-05-20T01:45:47.812Z,102312.19
2023-05-20T01:48:15.173Z,102313.28
2023-05-20T01:50:42.640Z,102312.28
2023-05-20T01:53:09.953Z,102314.81
2023-05-20T01:55:38.634Z,102314.97
2023-05-20T01:58:05.928Z,102306.03
2023-05-20T02:00:33.739Z,102307.38
2023-05-20T02:03:01.100Z,102302.63
2023-05-20T02:05:28.371Z,102309.19
2023-05-20T02:07:55.684Z,102310.88
2023-05-20T02:10:22.971Z,102307.59
2023-05-20T02:12:51.628Z,102307.22
2023-05-20T02:15:18.904Z,102301.22
2023-05-20T02:17:46.672Z,102304.31
2023-05-20T02:20:14.087Z,102305.31
2023-05-20T02:22:41.414Z,102298.28
2023-05-20T02:25:09.746Z,102294.31
2023-05-20T02:27:37.333Z,102295.88
2023-05-20T02:30:07.587Z,102299.28
2023-05-20T02:32:34.978Z,102296.44
2023-05-20T02:35:02.474Z,102293.44
2023-05-20T02:37:29.752Z,102299.03
2023-05-20T02:39:57.014Z,102302.38
2023-05-20T02:42:25.354Z,102303.22
2023-05-20T02:44:52.600Z,102305.66
2023-05-20T02:47:21.505Z,102310.84
2023-05-20T02:49:48.725Z,102307.81
2023-05-20T02:52:16.074Z,102308.81
2023-05-20T02:54:43.367Z,102314.59
2023-05-20T02:57:10.632Z,102310.88
2023-05-20T02:59:38.167Z,102317.75
2023-05-20T03:02:05.536Z,102323.06
2023-05-20T03:04:34.152Z,102317.63
2023-05-20T03:07:01.471Z,102318.94
2023-05-20T03:09:28.783Z,102313.28
2023-05-20T03:11:56.043Z,102324.97
2023-05-20T03:14:23.316Z,102320.78
2023-05-20T03:16:52.187Z,102320.44
2023-05-20T03:19:19.684Z,102324.75
2023-05-20T03:21:48.380Z,102321.97
2023-05-20T03:24:15.621Z,102326.28
2023-05-20T03:26:42.872Z,102327.25
2023-05-20T03:29:10.440Z,102326.06
2023-05-20T03:31:37.792Z,102326.09
2023-05-20T03:34:05.096Z,102331.16
2023-05-20T03:36:32.586Z,102321.50
2023-05-20T03:39:01.256Z,102321.28
2023-05-20T03:41:28.516Z,102322.47
2023-05-20T03:43:55.839Z,102317.53
2023-05-20T03:46:23.159Z,102321.50
2023-05-20T03:48:50.380Z,102318.19
2023-05-20T03:51:17.655Z,102325.59
2023-05-20T03:53:44.940Z,102318.66
2023-05-20T03:56:13.604Z,102334.91
2023-05-20T03:58:40.823Z,102331.56
2023-05-20T04:01:09.334Z,102322.47
2023-05-20T04:03:36.913Z,102330.22
2023-05-20T04:06:04.263Z,102326.47
2023-05-20T04:08:31.632Z,102327.31
2023-05-20T04:10:59.153Z,102325.63
2023-05-20T04:13:28.057Z,102322.97
2023-05-20T04:15:55.315Z,102324.41
2023-05-20T04:18:22.549Z,102316.44
2023-05-20T04:20:49.823Z,102332.88
2023-05-20T04:23:17.092Z,102322.47
2023-05-20T04:25:44.394Z,102321.50
2023-05-20T04:28:11.843Z,102319.59
2023-05-20T04:30:40.549Z,102323.19
2023-05-20T04:33:07.877Z,102319.09
2023-05-20T04:35:35.529Z,102320.78
2023-05-20T04:38:03.039Z,102320.69
2023-05-20T04:40:30.276Z,102321.88
2023-05-20T04:42:59.976Z,102325.16
2023-05-20T04:45:27.449Z,102319.09
2023-05-20T04:47:56.220Z,102323.31
2023-05-20T04:50:23.638Z,102318.13
2023-05-20T04:52:50.896Z,102309.81
2023-05-20T04:55:19.205Z,102313.16
2023-05-20T04:57:46.431Z,102317.41
2023-05-20T05:00:14.378Z,102307.75
2023-05-20T05:02:41.741Z,102313.28
2023-05-20T05:05:10.465Z,102304.94
2023-05-20T05:07:37.777Z,102310.63
2023-05-20T05:10:05.752Z,102314.50
2023-05-20T05:12:33.050Z,102318.25
2023-05-20T05:15:00.576Z,102318.63
2023-05-20T05:17:27.865Z,102320.44
2023-05-20T05:19:55.155Z,102323.34
2023-05-20T05:22:23.785Z,102328.03
2023-05-20T05:24:51.042Z,102333.13
2023-05-20T05:27:18.399Z,102329.97
2023-05-20T05:29:45.981Z,102326.59
2023-05-20T05:32:13.291Z,102329.75
2023-05-20T05:34:40.863Z,102317.75
2023-05-20T05:37:08.491Z,102318.59
2023-05-20T05:39:37.168Z,102316.91
2023-05-20T05:42:04.886Z,102309.44
2023-05-20T05:44:32.255Z,102308.72
2023-05-20T05:47:00.417Z,102311.56
2023-05-20T05:49:27.765Z,102311.59
2023-05-20T05:51:55.105Z,102314.50
2023-05-20T05:54:22.347Z,102310.28
2023-05-20T05:56:51.238Z,102300.25
2023-05-20T05:59:20.018Z,102309.56
2023-05-20T06:01:47.326Z,102306.78
2023-05-20T06:04:14.715Z,102304.22
2023-05-20T06:06:42.320Z,102303.47
2023-05-20T06:09:09.611Z,102294.38
2023-05-20T06:11:36.945Z,102296.00
2023-05-20T06:14:05.857Z,102297.34
2023-05-20T06:16:33.223Z,102300.69
2023-05-20T06:19:03.491Z,102296.47
2023-05-20T06:21:31.597Z,102290.56
2023-05-20T06:24:00.231Z,102294.75
2023-05-20T06:26:27.796Z,102291.72
2023-05-20T06:28:55.026Z,102291.22
2023-05-20T06:31:23.665Z,102293.44
2023-05-20T06:33:51.065Z,102288.34
2023-05-20T06:36:18.627Z,102290.50
2023-05-20T06:38:46.170Z,102292.72
2023-05-20T06:41:14.486Z,102300.44
2023-05-20T06:43:41.903Z,102289.19
2023-05-20T06:46:09.227Z,102301.16
2023-05-20T06:48:37.915Z,102308.84
2023-05-20T06:51:08.074Z,102318.03
2023-05-20T06:53:35.576Z,102309.16
2023-05-20T06:56:02.968Z,102303.69
2023-05-20T06:58:33.280Z,102307.94
2023-05-20T07:01:00.527Z,102310.31
2023-05-20T07:03:27.865Z,102314.34
2023-05-20T07:05:56.837Z,102312.97
2023-05-20T07:08:24.354Z,102304.94
2023-05-20T07:10:51.913Z,102304.00
2023-05-20T07:13:20.179Z,102300.56
2023-05-20T07:15:48.506Z,102297.00
2023-05-20T07:18:16.402Z,102301.69
2023-05-20T07:20:44.130Z,102303.28
2023-05-20T07:23:15.978Z,102294.25
2023-05-20T07:25:43.308Z,102286.53
2023-05-20T07:28:10.618Z,102278.69
2023-05-20T07:30:38.096Z,102283.31
2023-05-20T07:33:05.646Z,102282.25
2023-05-20T07:35:33.096Z,102281.44
2023-05-20T07:38:00.822Z,102274.72
2023-05-20T07:40:29.496Z,102274.91
2023-05-20T07:42:56.754Z,102273.81
2023-05-20T07:45:23.975Z,102263.09
2023-05-20T07:47:51.244Z,102263.41
2023-05-20T07:50:18.588Z,102254.44
2023-05-20T07:52:55.934Z,102261.19
2023-05-20T07:55:24.476Z,102267.25
2023-05-20T07:57:53.252Z,102269.81
2023-05-20T08:00:21.066Z,102249.84
2023-05-20T08:02:48.500Z,102254.47
2023-05-20T08:05:15.855Z,102250.69
2023-05-20T08:07:43.192Z,102252.78
2023-05-20T08:10:11.005Z,102250.09
2023-05-20T08:12:38.303Z,102251.56
2023-05-20T08:15:08.453Z,102253.03
2023-05-20T08:17:35.796Z,102256.00
2023-05-20T08:20:03.280Z,102260.63
2023-05-20T08:22:30.775Z,102252.75
2023-05-20T08:24:58.086Z,102245.72
2023-05-20T08:27:25.622Z,102249.47
2023-05-20T08:29:52.896Z,102247.63
2023-05-20T08:32:21.599Z,102247.06
2023-05-20T08:34:48.881Z,102248.47
2023-05-20T08:37:16.161Z,102243.31
2023-05-20T08:39:43.595Z,102236.44
2023-05-20T08:42:10.817Z,102233.34
2023-05-20T08:44:38.216Z,102232.19
2023-05-20T08:47:07.598Z,102236.28
2023-05-20T08:49:36.288Z,102236.16
2023-05-20T08:52:04.963Z,102236.44
2023-05-20T08:54:44.380Z,102227.16
2023-05-20T08:57:11.784Z,102233.06
2023-05-20T08:59:39.309Z,102233.81
2023-05-20T09:02:08.407Z,102232.78
2023-05-20T09:04:37.225Z,102235.88
2023-05-20T09:07:04.666Z,102230.25
2023-05-20T09:09:33.512Z,102226.25
2023-05-20T09:12:00.859Z,102227.91
2023-05-20T09:14:28.247Z,102236.22
2023-05-20T09:16:55.611Z,102231.44
2023-05-20T09:19:24.539Z,102228.03
2023-05-20T09:21:54.701Z,102230.38
2023-05-20T09:24:25.870Z,102220.50
2023-05-20T09:26:53.174Z,102222.50
2023-05-20T09:29:20.420Z,102226.22
2023-05-20T09:31:48.174Z,102224.53
2023-05-20T09:34:16.661Z,102225.94
2023-05-20T09:36:44.690Z,102223.13
2023-05-20T09:39:15.971Z,102224.69
2023-05-20T09:41:52.240Z,102232.69
2023-05-20T09:44:19.986Z,102224.19
2023-05-20T09:46:47.743Z,102229.03
2023-05-20T09:49:15.329Z,102224.94
2023-05-20T09:51:44.137Z,102218.19
2023-05-20T09:54:14.022Z,102222.63
2023-05-20T09:56:41.590Z,102217.63
2023-05-20T09:59:11.605Z,102215.63
2023-05-20T10:01:38.945Z,102218.50
2023-05-20T10:04:08.438Z,102214.19
2023-05-20T10:06:49.972Z,102207.91
2023-05-20T10:09:47.740Z,102208.81
2023-05-20T10:12:25.773Z,102206.41
2023-05-20T10:15:02.818Z,102197.94
2023-05-20T10:17:39.835Z,102199.44
2023-05-20T10:20:08.241Z,102200.44
2023-05-20T10:22:35.546Z,102193.00
2023-05-20T10:25:07.891Z,102194.19
2023-05-20T10:27:45.150Z,102197.59
2023-05-20T10:30:16.317Z,102202.78
2023-05-20T10:32:52.073Z,102206.81
2023-05-20T10:35:22.743Z,102198.63
2023-05-20T10:37:49.988Z,102191.06
2023-05-20T10:40:20.904Z,102198.03
2023-05-20T10:42:48.661Z,102185.97
2023-05-20T10:45:26.229Z,102187.44
2023-05-20T10:47:57.578Z,102186.81
2023-05-20T10:50:29.332Z,102179.03
2023-05-20T10:53:03.805Z,102185.81
2023-05-20T10:55:37.444Z,102183.69
2023-05-20T10:58:05.611Z,102179.03
2023-05-20T11:00:35.578Z,102177.72
2023-05-20T11:03:04.504Z,102181.59
2023-05-20T11:05:32.213Z,102175.03
2023-05-20T11:08:04.384Z,102170.09
2023-05-20T11:10:33.897Z,102167.28
2023-05-20T11:13:04.410Z,102160.44
2023-05-20T11:15:35.278Z,102153.38
2023-05-20T11:18:04.219Z,102154.19
2023-05-20T11:20:31.906Z,102158.31
2023-05-20T11:22:59.150Z,102152.81
2023-05-20T11:25:26.342Z,102153.16
2023-05-20T11:27:54.040Z,102137.75
2023-05-20T11:30:22.661Z,102139.13
2023-05-20T11:33:00.428Z,102154.06
2023-05-20T11:35:28.958Z,102141.47
2023-05-20T11:37:57.223Z,102143.00
2023-05-20T11:40:27.168Z,102145.34
2023-05-20T11:42:59.480Z,102137.59
2023-05-20T11:45:38.886Z,102138.28
2023-05-20T11:48:06.824Z,102131.22
2023-05-20T11:50:35.662Z,102134.91
2023-05-20T11:53:03.626Z,102128.63
2023-05-20T11:55:31.793Z,102131.03
2023-05-20T11:58:00.211Z,102134.72
2023-05-20T12:00:31.315Z,102124.06
2023-05-20T12:03:04.226Z,102116.38
2023-05-20T12:05:31.811Z,102119.06
2023-05-20T12:07:59.123Z,102119.25
2023-05-20T12:10:26.409Z,102117.25
2023-05-20T12:12:53.762Z,102097.63
2023-05-20T12:15:21.018Z,102092.75
2023-05-20T12:17:50.720Z,102096.09
2023-05-20T12:20:19.852Z,102103.06
2023-05-20T12:22:47.842Z,102101.25
2023-05-20T12:25:16.480Z,102098.81
2023-05-20T12:27:43.849Z,102093.53
2023-05-20T12:30:11.582Z,102090.19
2023-05-20T12:32:38.996Z,102076.78
2023-05-20T12:35:09.272Z,102085.53
2023-05-20T12:37:37.273Z,102074.63
2023-05-20T12:40:05.506Z,102067.34
2023-05-20T12:42:35.306Z,102072.81
2023-05-20T12:45:04.966Z,102076.03
2023-05-20T12:47:33.890Z,102073.78
2023-05-20T12:50:01.593Z,102064.53
2023-05-20T12:52:30.295Z,102060.41
2023-05-20T12:54:57.604Z,102053.78
2023-05-20T12:57:25.174Z,102063.69
2023-05-20T12:59:52.283Z,102051.41
2023-05-20T13:02:19.492Z,102036.84
2023-05-20T13:04:46.865Z,102036.56
2023-05-20T13:07:14.175Z,102042.97
2023-05-20T13:09:44.692Z,102041.03
2023-05-20T13:12:11.971Z,102035.06
2023-05-20T13:14:39.214Z,102034.31
2023-05-20T13:17:06.923Z,102027.25
2023-05-20T13:19:34.441Z,102024.19
2023-05-20T13:22:01.562Z,102018.91
2023-05-20T13:24:28.786Z,102020.22
2023-05-20T13:26:57.462Z,102008.84
2023-05-20T13:29:24.960Z,102001.13
2023-05-20T13:31:52.261Z,101999.00
2023-05-20T13:34:19.837Z,101999.84
2023-05-20T13:36:46.887Z,102011.19
2023-05-20T13:39:16.305Z,102008.66
2023-05-20T13:41:43.954Z,101998.91
2023-05-20T13:44:13.658Z,101996.75
2023-05-20T13:46:41.009Z,101991.63
2023-05-20T13:49:08.361Z,101994.25
2023-05-20T13:51:35.725Z,101992.50
2023-05-20T13:54:03.010Z,101992.03
2023-05-20T13:56:31.603Z,101992.25
2023-05-20T13:58:59.168Z,101993.81
2023-05-20T14:01:27.667Z,101986.44
2023-05-20T14:03:54.985Z,101987.63
2023-05-20T14:06:22.313Z,101983.56
2023-05-20T14:08:49.577Z,101975.00
2023-05-20T14:11:16.906Z,101968.28
2023-05-20T14:13:45.392Z,101966.41
2023-05-20T14:16:12.992Z,101971.16
2023-05-20T14:18:41.461Z,101958.00
2023-05-20T14:21:08.615Z,101957.81
2023-05-20T14:23:35.940Z,101952.66
2023-05-20T14:26:03.339Z,101952.44
2023-05-20T14:28:30.609Z,101953.41
2023-05-20T14:30:57.912Z,101940.34
2023-05-20T14:33:25.212Z,101953.41
2023-05-20T14:35:53.926Z,101949.69
2023-05-20T14:38:22.284Z,101934.78
2023-05-20T14:40:49.636Z,101955.72
2023-05-20T14:43:16.863Z,101947.22
2023-05-20T14:45:44.311Z,101941.34
2023-05-20T14:48:11.821Z,101939.72
2023-05-20T14:50:38.920Z,101938.69
2023-05-20T14:53:08.706Z,101936.31
2023-05-20T14:55:35.979Z,101935.88
2023-05-20T14:58:04.537Z,101933.19
2023-05-20T15:00:31.793Z,101930.84
2023-05-20T15:02:59.309Z,101933.56
2023-05-20T15:05:26.621Z,101929.25
2023-05-20T15:07:54.245Z,101924.88
2023-05-20T15:10:23.050Z,101924.78
2023-05-20T15:12:50.360Z,101913.47
2023-05-20T15:15:17.812Z,101923.03
2023-05-20T15:17:45.095Z,101909.63
2023-05-20T15:20:12.974Z,101916.91
2023-05-20T15:22:40.331Z,101909.81
2023-05-20T15:25:08.204Z,101905.53
2023-05-20T15:27:36.948Z,101903.13
2023-05-20T15:30:05.126Z,101901.66
2023-05-20T15:32:32.583Z,101901.28
2023-05-20T15:35:02.437Z,101892.78
2023-05-20T15:37:30.390Z,101903.78
2023-05-20T15:39:57.809Z,101899.13
2023-05-20T15:42:25.108Z,101891.03
2023-05-20T15:44:53.876Z,101888.09
2023-05-20T15:47:21.257Z,101886.06
2023-05-20T15:49:48.878Z,101889.00
2023-05-20T15:52:15.986Z,101882.19
2023-05-20T15:54:43.182Z,101886.31
2023-05-20T15:57:10.424Z,101881.34
2023-05-20T15:59:37.697Z,101882.19
2023-05-20T16:02:06.823Z,101872.66
2023-05-20T16:04:34.251Z,101871.84
2023-05-20T16:07:01.572Z,101871.72
2023-05-20T16:09:28.805Z,101866.47
2023-05-20T16:11:56.092Z,101871.16
2023-05-20T16:14:24.484Z,101861.34
2023-05-20T16:16:51.750Z,101859.97
2023-05-20T16:19:20.433Z,101855.31
2023-05-20T16:21:47.850Z,101859.88
2023-05-20T16:24:15.844Z,101852.75
2023-05-20T16:26:43.290Z,101848.53
2023-05-20T16:29:10.569Z,101852.91
2023-05-20T16:31:40.566Z,101852.34
2023-05-20T16:34:07.961Z,101851.28
2023-05-20T16:36:36.667Z,101844.97
2023-05-20T16:41:23.847Z,101841.53
2023-05-20T16:43:51.422Z,101839.16
2023-05-20T16:46:18.569Z,101833.16
2023-05-20T16:48:45.840Z,101829.06
2023-05-20T16:51:13.181Z,101827.22
2023-05-20T16:53:41.903Z,101816.41
2023-05-20T16:56:09.185Z,101815.00
2023-05-20T16:58:36.385Z,101816.25
2023-05-20T17:01:03.787Z,101817.81
2023-05-20T17:03:31.658Z,101826.75
2023-05-20T17:05:58.989Z,101820.28
2023-05-20T17:08:26.199Z,101825.16
2023-05-20T17:10:54.782Z,101826.00
2023-05-20T17:13:22.142Z,101825.91
2023-05-20T17:15:49.411Z,101835.91
2023-05-20T17:18:16.728Z,101821.88
2023-05-20T17:20:44.080Z,101826.53
2023-05-20T17:23:11.348Z,101830.78
2023-05-20T17:25:38.652Z,101826.16
2023-05-20T17:28:07.587Z,101826.06
2023-05-20T17:30:35.163Z,101821.06
2023-05-20T17:33:02.407Z,101817.25
2023-05-20T17:35:29.642Z,101825.13
2023-05-20T17:37:56.891Z,101825.78
2023-05-20T17:40:24.202Z,101831.59
2023-05-20T17:42:51.500Z,101820.78
2023-05-20T17:45:20.151Z,101823.19
2023-05-20T17:47:47.480Z,101817.31
2023-05-20T17:50:14.842Z,101820.41
2023-05-20T17:52:42.134Z,101824.41
2023-05-20T17:55:09.755Z,101825.50
2023-05-20T17:57:36.851Z,101821.78
2023-05-20T18:00:05.044Z,101829.13
2023-05-20T18:02:33.844Z,101816.75
2023-05-20T18:05:01.255Z,101823.47
2023-05-20T18:07:28.525Z,101826.44
2023-05-20T18:09:55.790Z,101822.16
2023-05-20T18:12:23.096Z,101825.78
2023-05-20T18:14:50.380Z,101823.91
2023-05-20T18:17:17.775Z,101828.44
2023-05-20T18:19:46.517Z,101822.78
2023-05-20T18:22:13.872Z,101829.09
2023-05-20T18:24:41.127Z,101832.44
2023-05-20T18:27:08.385Z,101836.81
2023-05-20T18:29:35.649Z,101831.63
2023-05-20T18:32:02.960Z,101818.34
2023-05-20T18:34:30.342Z,101829.53
2023-05-20T18:36:59.096Z,101826.66
2023-05-20T18:39:26.422Z,101832.47
2023-05-20T18:41:53.769Z,101829.75
2023-05-20T18:44:21.278Z,101825.16
2023-05-20T18:46:48.622Z,101834.13
2023-05-20T18:49:16.146Z,101825.75
2023-05-20T18:51:43.417Z,101830.41
2023-05-20T18:54:12.146Z,101824.22
2023-05-20T18:56:39.382Z,101835.47
2023-05-20T18:59:06.582Z,101834.31
2023-05-20T19:01:34.186Z,101833.97
2023-05-20T19:04:01.364Z,101839.00
2023-05-20T19:06:28.548Z,101844.91
2023-05-20T19:08:56.028Z,101850.47
2023-05-20T19:11:24.987Z,101848.88
2023-05-20T19:13:52.289Z,101849.13
2023-05-20T19:16:19.853Z,101861.06
2023-05-20T19:18:47.588Z,101851.44
2023-05-20T19:21:14.851Z,101862.03
2023-05-20T19:23:42.657Z,101863.72
2023-05-20T19:26:09.736Z,101859.13
2023-05-20T19:28:38.307Z,101865.84
2023-05-20T19:31:05.622Z,101867.53
2023-05-20T19:33:32.938Z,101863.38
2023-05-20T19:36:00.339Z,101863.63
2023-05-20T19:38:27.627Z,101871.00
2023-05-20T19:40:54.925Z,101871.69
2023-05-20T19:43:22.191Z,101864.28
2023-05-20T19:45:50.883Z,101877.75
2023-05-20T19:48:19.944Z,101883.13
2023-05-20T19:50:48.946Z,101885.00
2023-05-20T19:53:16.419Z,101887.00
2023-05-20T19:55:45.123Z,101891.88
2023-05-20T19:58:12.403Z,101886.19
2023-05-20T20:00:39.786Z,101878.84
2023-05-20T20:03:08.586Z,101877.66
2023-05-20T20:05:37.145Z,101869.09
2023-05-20T20:08:05.283Z,101866.75
2023-05-20T20:10:33.905Z,101872.16
2023-05-20T20:13:01.205Z,101866.94
2023-05-20T20:15:28.514Z,101869.28
2023-05-20T20:17:55.910Z,101871.47
2023-05-20T20:20:24.927Z,101871.13
2023-05-20T20:22:52.275Z,101874.13
2023-05-20T20:25:20.079Z,101867.78
2023-05-20T20:27:47.130Z,101862.91
2023-05-20T20:30:14.488Z,101868.75
2023-05-20T20:32:43.597Z,101865.44
2023-05-20T20:35:10.927Z,101868.94
2023-05-20T20:37:39.551Z,101869.41
2023-05-20T20:40:09.008Z,101872.56
2023-05-20T20:42:36.227Z,101861.97
2023-05-20T20:45:03.948Z,101870.69
2023-05-20T20:47:31.019Z,101864.66
2023-05-20T20:49:58.266Z,101859.31
2023-05-20T20:52:30.229Z,101864.25
2023-05-20T20:54:58.878Z,101861.31
2023-05-20T20:57:26.401Z,101852.94
2023-05-20T20:59:53.954Z,101850.88
2023-05-20T21:02:21.315Z,101857.72
2023-05-20T21:04:48.597Z,101861.38
2023-05-20T21:07:15.840Z,101857.72
2023-05-20T21:09:43.149Z,101852.72
2023-05-20T21:12:11.893Z,101853.78
2023-05-20T21:14:39.178Z,101846.22
2023-05-20T21:17:07.003Z,101838.59
2023-05-20T21:19:34.430Z,101845.38
2023-05-20T21:22:01.949Z,101842.50
2023-05-20T21:24:29.253Z,101834.50
2023-05-20T21:26:56.783Z,101825.78
2023-05-20T21:29:25.420Z,101834.09
2023-05-20T21:31:52.700Z,101830.78
2023-05-20T21:34:19.899Z,101814.50
2023-05-20T21:36:47.150Z,101820.66
2023-05-20T21:39:14.351Z,101819.97
2023-05-20T21:41:41.536Z,101819.72
2023-05-20T21:44:08.740Z,101818.03
2023-05-20T21:46:37.648Z,101818.81
2023-05-20T21:49:05.029Z,101814.28
2023-05-20T21:51:32.299Z,101817.78
2023-05-20T21:53:59.594Z,101815.47
2023-05-20T21:56:26.910Z,101812.31
2023-05-20T21:58:54.164Z,101803.91
2023-05-20T22:01:21.579Z,101800.66
2023-05-20T22:03:51.473Z,101799.19
2023-05-20T22:06:19.884Z,101793.78
2023-05-20T22:08:47.171Z,101794.06
2023-05-20T22:11:14.627Z,101793.03
2023-05-20T22:13:41.848Z,101794.63
2023-05-20T22:16:09.380Z,101791.59
2023-05-20T22:18:36.661Z,101793.78
2023-05-20T22:21:05.828Z,101794.63
2023-05-20T22:23:33.363Z,101795.47
2023-05-20T22:26:00.712Z,101788.44
2023-05-20T22:28:27.943Z,101802.16
2023-05-20T22:30:55.246Z,101791.69
2023-05-20T22:33:22.531Z,101799.78
2023-05-20T22:35:50.200Z,101788.31
2023-05-20T22:38:18.995Z,101789.34
2023-05-20T22:40:46.295Z,101790.50
2023-05-20T22:43:13.556Z,101783.94
2023-05-20T22:45:40.987Z,101784.94
2023-05-20T22:48:08.392Z,101781.91
2023-05-20T22:50:35.748Z,101789.31
2023-05-20T22:53:03.046Z,101776.38
2023-05-20T22:55:34.792Z,101781.50
2023-05-20T22:58:03.582Z,101783.25
2023-05-20T23:00:30.896Z,101793.28
2023-05-20T23:02:58.282Z,101776.84
2023-05-20T23:05:25.681Z,101773.84
2023-05-20T23:07:53.107Z,101775.25
2023-05-20T23:10:20.801Z,101769.97
2023-05-20T23:12:49.544Z,101768.25
2023-05-20T23:15:17.473Z,101761.91
2023-05-20T23:17:45.364Z,101763.56
2023-05-20T23:20:12.498Z,101757.66
2023-05-20T23:22:39.936Z,101763.56
2023-05-20T23:25:08.323Z,101753.16
2023-05-20T23:27:35.582Z,101761.06
2023-05-20T23:30:04.951Z,101762.09
2023-05-20T23:32:32.424Z,101752.16
2023-05-20T23:34:59.820Z,101758.34
2023-05-20T23:37:27.094Z,101754.88
2023-05-20T23:39:54.565Z,101747.75
2023-05-20T23:42:22.197Z,101748.69
2023-05-20T23:44:49.693Z,101750.66
2023-05-20T23:47:19.336Z,101752.28
2023-05-20T23:49:48.611Z,101748.13
2023-05-20T23:52:16.656Z,101741.22
2023-05-20T23:54:43.937Z,101744.50
2023-05-20T23:57:11.391Z,101746.50
2023-05-20T23:59:38.654Z,101739.13
